createdAt,value
2022-11-07T00:00:37.489Z,42.18
2022-11-07T00:03:04.141Z,42.28
2022-11-07T00:05:31.029Z,42.69
2022-11-07T00:07:57.698Z,42.43
2022-11-07T00:10:24.204Z,42.39
2022-11-07T00:12:50.574Z,42.64
2022-11-07T00:15:17.186Z,42.31
2022-11-07T00:17:43.496Z,42.73
2022-11-07T00:20:10.269Z,42.64
2022-11-07T00:22:36.678Z,42.83
2022-11-07T00:25:03.233Z,42.24
2022-11-07T00:27:29.819Z,42.28
2022-11-07T00:29:56.461Z,42.71
2022-11-07T00:32:23.091Z,42.50
2022-11-07T00:34:49.421Z,43.02
2022-11-07T00:37:15.866Z,42.75
2022-11-07T00:39:42.264Z,43.09
2022-11-07T00:42:08.658Z,42.98
2022-11-07T00:44:36.074Z,42.88
2022-11-07T00:47:02.643Z,43.21
2022-11-07T00:49:29.073Z,43.12
2022-11-07T00:51:57.063Z,43.21
2022-11-07T00:54:25.849Z,43.14
2022-11-07T00:56:52.283Z,43.26
2022-11-07T00:59:18.894Z,43.33
2022-11-07T01:01:45.437Z,43.33
2022-11-07T01:04:48.387Z,43.57
2022-11-07T01:07:14.809Z,43.33
2022-11-07T01:09:42.207Z,43.67
2022-11-07T01:12:08.804Z,43.65
2022-11-07T01:14:35.743Z,43.57
2022-11-07T01:17:02.119Z,43.25
2022-11-07T01:19:28.504Z,43.51
2022-11-07T01:21:55.031Z,43.14
2022-11-07T01:24:21.687Z,43.39
2022-11-07T01:26:49.956Z,42.93
2022-11-07T01:29:17.836Z,43.09
2022-11-07T01:31:44.359Z,43.11
2022-11-07T01:34:10.866Z,43.41
2022-11-07T01:36:37.321Z,43.59
2022-11-07T01:39:05.269Z,43.53
2022-11-07T01:41:34.849Z,43.51
2022-11-07T01:44:09.101Z,43.51
2022-11-07T01:46:41.341Z,44.00
2022-11-07T01:49:26.156Z,44.07
2022-11-07T01:52:04.614Z,44.24
2022-11-07T01:54:34.573Z,43.40
2022-11-07T01:57:07.090Z,43.97
2022-11-07T01:59:34.783Z,43.64
2022-11-07T02:02:01.285Z,43.65
2022-11-07T02:04:30.782Z,44.09
2022-11-07T02:06:57.067Z,44.04
2022-11-07T02:09:23.732Z,44.01
2022-11-07T02:11:50.120Z,44.52
2022-11-07T02:14:18.517Z,44.52
2022-11-07T02:16:46.146Z,44.23
2022-11-07T02:19:22.072Z,44.67
2022-11-07T02:22:05.514Z,45.03
2022-11-07T02:24:34.703Z,44.52
2022-11-07T02:27:04.415Z,44.80
2022-11-07T02:29:33.744Z,44.79
2022-11-07T02:32:05.509Z,44.89
2022-11-07T02:34:31.954Z,44.73
2022-11-07T02:37:00.210Z,45.00
2022-11-07T02:39:27.412Z,44.90
2022-11-07T02:41:56.247Z,44.90
2022-11-07T02:44:23.781Z,45.18
2022-11-07T02:46:50.273Z,45.24
2022-11-07T02:49:16.622Z,44.93
2022-11-07T02:51:42.981Z,45.09
2022-11-07T02:54:09.502Z,45.38
2022-11-07T02:56:35.910Z,45.35
2022-11-07T02:59:02.520Z,45.47
2022-11-07T03:01:29.126Z,45.34
2022-11-07T03:03:56.015Z,45.17
2022-11-07T03:06:25.033Z,45.74
2022-11-07T03:08:52.164Z,45.16
2022-11-07T03:11:20.058Z,45.28
2022-11-07T03:13:48.580Z,45.63
2022-11-07T03:16:16.255Z,45.53
2022-11-07T03:18:42.957Z,45.49
2022-11-07T03:21:09.745Z,45.18
2022-11-07T03:23:37.165Z,45.60
2022-11-07T03:26:05.418Z,45.59
2022-11-07T03:28:34.577Z,45.46
2022-11-07T03:31:02.178Z,45.57
2022-11-07T03:33:29.900Z,45.46
2022-11-07T03:35:56.361Z,45.43
2022-11-07T03:38:22.861Z,45.56
2022-11-07T03:40:50.483Z,45.44
2022-11-07T03:43:17.262Z,45.93
2022-11-07T03:45:43.930Z,45.97
2022-11-07T03:48:10.712Z,45.94
2022-11-07T03:50:39.379Z,45.85
2022-11-07T03:53:06.265Z,45.64
2022-11-07T03:55:32.561Z,45.55
2022-11-07T03:57:58.908Z,45.73
2022-11-07T04:00:25.518Z,45.58
2022-11-07T04:02:52.060Z,45.89
2022-11-07T04:05:18.640Z,46.05
2022-11-07T04:07:45.045Z,45.78
2022-11-07T04:10:11.607Z,45.52
2022-11-07T04:12:56.783Z,45.44
2022-11-07T04:15:42.232Z,45.69
2022-11-07T04:18:08.553Z,45.39
2022-11-07T04:20:35.220Z,45.80
2022-11-07T04:23:01.710Z,45.77
2022-11-07T04:25:46.910Z,45.46
2022-11-07T04:28:16.143Z,45.45
2022-11-07T04:30:42.476Z,45.50
2022-11-07T04:33:09.294Z,45.82
2022-11-07T04:35:35.827Z,45.68
2022-11-07T04:38:02.254Z,45.46
2022-11-07T04:40:29.643Z,45.73
2022-11-07T04:42:56.332Z,45.89
2022-11-07T04:45:23.098Z,45.76
2022-11-07T04:47:49.883Z,45.72
2022-11-07T04:50:19.350Z,45.88
2022-11-07T04:52:46.871Z,45.71
2022-11-07T04:55:24.468Z,46.56
2022-11-07T04:57:51.410Z,45.80
2022-11-07T05:00:19.264Z,45.80
2022-11-07T05:02:46.596Z,46.03
2022-11-07T05:05:13.347Z,45.87
2022-11-07T05:07:39.896Z,46.33
2022-11-07T05:10:11.971Z,46.17
2022-11-07T05:12:38.848Z,46.22
2022-11-07T05:15:05.724Z,46.07
2022-11-07T05:17:32.320Z,46.22
2022-11-07T05:19:58.660Z,46.14
2022-11-07T05:22:43.746Z,46.27
2022-11-07T05:25:10.145Z,46.45
2022-11-07T05:27:36.660Z,46.24
2022-11-07T05:30:04.474Z,46.58
2022-11-07T05:32:30.871Z,46.62
2022-11-07T05:34:57.238Z,46.33
2022-11-07T05:37:23.640Z,46.51
2022-11-07T05:39:54.890Z,46.58
2022-11-07T05:42:21.587Z,46.38
2022-11-07T05:44:48.009Z,46.50
2022-11-07T05:47:14.822Z,46.39
2022-11-07T05:49:41.155Z,46.55
2022-11-07T05:52:07.460Z,46.44
2022-11-07T05:54:33.820Z,46.59
2022-11-07T05:57:00.210Z,46.75
2022-11-07T05:59:26.795Z,46.44
2022-11-07T06:01:54.249Z,46.48
2022-11-07T06:04:20.852Z,46.47
2022-11-07T06:06:47.307Z,46.40
2022-11-07T06:09:14.194Z,46.47
2022-11-07T06:11:40.486Z,46.40
2022-11-07T06:14:06.910Z,46.54
2022-11-07T06:16:33.277Z,46.62
2022-11-07T06:18:59.740Z,46.67
2022-11-07T06:21:26.186Z,46.91
2022-11-07T06:23:52.927Z,46.70
2022-11-07T06:26:19.277Z,46.67
2022-11-07T06:28:47.656Z,46.87
2022-11-07T06:31:14.178Z,46.82
2022-11-07T06:33:40.530Z,46.86
2022-11-07T06:36:14.222Z,47.30
2022-11-07T06:38:40.690Z,46.91
2022-11-07T06:41:13.439Z,47.36
2022-11-07T06:43:41.277Z,47.10
2022-11-07T06:46:12.789Z,46.91
2022-11-07T06:48:40.030Z,46.54
2022-11-07T06:51:07.633Z,47.00
2022-11-07T06:53:36.324Z,47.35
2022-11-07T06:56:05.405Z,46.43
2022-11-07T06:58:31.708Z,47.02
2022-11-07T07:01:02.544Z,47.11
2022-11-07T07:03:30.002Z,46.83
2022-11-07T07:06:04.493Z,47.49
2022-11-07T07:08:31.154Z,46.84
2022-11-07T07:11:03.381Z,47.49
2022-11-07T07:13:30.480Z,46.87
2022-11-07T07:15:59.346Z,47.27
2022-11-07T07:18:27.028Z,47.00
2022-11-07T07:21:01.949Z,47.13
2022-11-07T07:23:28.275Z,46.58
2022-11-07T07:25:54.980Z,46.41
2022-11-07T07:28:21.529Z,46.79
2022-11-07T07:30:51.833Z,46.92
2022-11-07T07:33:19.225Z,46.27
2022-11-07T07:35:46.331Z,46.56
2022-11-07T07:38:13.217Z,46.17
2022-11-07T07:40:39.739Z,46.18
2022-11-07T07:43:06.231Z,46.60
2022-11-07T07:45:32.631Z,46.31
2022-11-07T07:48:04.987Z,46.45
2022-11-07T07:50:31.494Z,46.04
2022-11-07T07:52:58.709Z,45.94
2022-11-07T07:55:25.283Z,45.71
2022-11-07T07:57:51.665Z,45.90
2022-11-07T08:00:18.165Z,45.58
2022-11-07T08:02:44.515Z,45.83
2022-11-07T08:05:15.134Z,45.69
2022-11-07T08:07:49.486Z,45.41
2022-11-07T08:13:03.942Z,45.36
2022-11-07T08:15:30.278Z,45.03
2022-11-07T08:18:01.135Z,44.91
2022-11-07T08:20:28.128Z,45.41
2022-11-07T08:23:05.806Z,45.19
2022-11-07T08:25:34.434Z,45.17
2022-11-07T08:28:00.977Z,44.98
2022-11-07T08:30:28.432Z,44.83
2022-11-07T08:32:56.514Z,45.05
2022-11-07T08:35:22.899Z,44.90
2022-11-07T08:37:52.612Z,44.59
2022-11-07T08:40:19.459Z,44.78
2022-11-07T08:42:45.959Z,44.60
2022-11-07T08:45:12.480Z,44.67
2022-11-07T08:47:38.838Z,44.57
2022-11-07T08:50:06.164Z,44.57
2022-11-07T08:52:34.729Z,44.48
2022-11-07T08:55:01.024Z,44.53
2022-11-07T08:57:27.388Z,44.17
2022-11-07T08:59:53.837Z,44.06
2022-11-07T09:05:06.933Z,44.02
2022-11-07T09:07:37.124Z,43.88
2022-11-07T09:10:04.088Z,44.08
2022-11-07T09:12:30.576Z,44.17
2022-11-07T09:14:57.065Z,43.96
2022-11-07T09:17:23.581Z,43.95
2022-11-07T09:19:50.130Z,44.04
2022-11-07T09:22:16.628Z,43.91
2022-11-07T09:24:43.543Z,44.08
2022-11-07T09:27:09.962Z,44.08
2022-11-07T09:29:36.282Z,44.18
2022-11-07T09:32:23.334Z,44.14
2022-11-07T09:34:56.045Z,44.14
2022-11-07T09:37:24.623Z,43.98
2022-11-07T09:39:51.379Z,44.08
2022-11-07T09:42:36.366Z,43.87
2022-11-07T09:45:03.393Z,43.91
2022-11-07T09:47:38.788Z,44.04
2022-11-07T09:50:19.189Z,44.00
2022-11-07T09:52:57.843Z,44.07
2022-11-07T09:55:31.917Z,43.91
2022-11-07T09:58:03.003Z,43.94
2022-11-07T10:00:31.852Z,43.92
2022-11-07T10:03:02.048Z,43.82
2022-11-07T10:05:46.383Z,43.81
2022-11-07T10:08:28.457Z,43.89
2022-11-07T10:11:00.715Z,43.99
2022-11-07T10:13:42.525Z,44.01
2022-11-07T10:16:29.622Z,44.03
2022-11-07T10:19:29.201Z,44.01
2022-11-07T10:22:31.443Z,44.09
2022-11-07T10:25:20.233Z,44.13
2022-11-07T10:28:11.627Z,44.05
2022-11-07T10:30:38.325Z,44.12
2022-11-07T10:33:30.094Z,44.12
2022-11-07T10:36:02.874Z,44.23
2022-11-07T10:38:31.214Z,44.08
2022-11-07T10:40:57.730Z,44.22
2022-11-07T10:43:39.253Z,44.45
2022-11-07T10:46:15.358Z,44.43
2022-11-07T10:48:52.895Z,44.43
2022-11-07T10:51:19.302Z,44.21
2022-11-07T10:53:45.981Z,44.13
2022-11-07T10:56:13.358Z,44.42
2022-11-07T10:58:46.171Z,44.62
2022-11-07T11:01:12.832Z,44.54
2022-11-07T11:03:44.964Z,44.53
2022-11-07T11:06:23.659Z,44.94
2022-11-07T11:08:52.094Z,44.77
2022-11-07T11:11:21.505Z,44.97
2022-11-07T11:13:49.190Z,44.97
2022-11-07T11:16:25.472Z,45.53
2022-11-07T11:18:55.803Z,45.44
2022-11-07T11:21:23.717Z,45.76
2022-11-07T11:23:54.898Z,46.03
2022-11-07T11:26:30.422Z,46.95
2022-11-07T11:29:07.004Z,47.36
2022-11-07T11:31:37.215Z,47.02
2022-11-07T11:34:11.679Z,47.35
2022-11-07T11:36:45.739Z,47.57
2022-11-07T11:39:29.559Z,48.09
2022-11-07T11:42:00.414Z,47.72
2022-11-07T11:44:38.370Z,47.64
2022-11-07T11:47:16.360Z,47.76
2022-11-07T11:49:50.270Z,47.70
2022-11-07T11:52:20.534Z,47.44
2022-11-07T11:54:50.162Z,47.21
2022-11-07T11:57:47.047Z,47.17
2022-11-07T12:00:21.555Z,47.31
2022-11-07T12:02:55.392Z,46.95
2022-11-07T12:05:52.939Z,46.64
2022-11-07T12:08:22.568Z,46.46
2022-11-07T12:11:05.187Z,46.54
2022-11-07T12:13:56.861Z,46.59
2022-11-07T12:16:44.962Z,46.05
2022-11-07T12:19:34.986Z,46.19
2022-11-07T12:22:14.887Z,46.00
2022-11-07T12:25:02.398Z,45.94
2022-11-07T12:27:34.526Z,45.88
2022-11-07T12:30:23.733Z,46.06
2022-11-07T12:32:59.299Z,45.65
2022-11-07T12:35:47.720Z,45.88
2022-11-07T12:38:36.242Z,45.78
2022-11-07T12:41:05.578Z,45.70
2022-11-07T12:43:46.607Z,45.72
2022-11-07T12:46:35.421Z,45.81
2022-11-07T12:49:11.445Z,45.64
2022-11-07T12:52:02.815Z,45.31
2022-11-07T12:54:42.537Z,45.27
2022-11-07T12:57:28.857Z,45.07
2022-11-07T13:00:26.012Z,45.21
2022-11-07T13:03:28.422Z,44.99
2022-11-07T13:06:18.467Z,45.22
2022-11-07T13:09:29.229Z,45.08
2022-11-07T13:12:13.733Z,44.97
2022-11-07T13:14:42.460Z,44.64
2022-11-07T13:17:27.804Z,44.46
2022-11-07T13:20:03.636Z,44.26
2022-11-07T13:22:34.660Z,44.25
2022-11-07T13:25:10.514Z,44.14
2022-11-07T13:27:42.695Z,44.43
2022-11-07T13:30:15.096Z,44.42
2022-11-07T13:32:43.154Z,44.06
2022-11-07T13:35:24.258Z,44.15
2022-11-07T13:38:08.354Z,44.13
2022-11-07T13:40:39.818Z,44.20
2022-11-07T13:43:42.639Z,44.04
2022-11-07T13:46:17.601Z,43.79
2022-11-07T13:48:51.307Z,43.61
2022-11-07T13:51:31.154Z,43.88
2022-11-07T13:54:09.847Z,43.66
2022-11-07T13:57:15.577Z,43.96
2022-11-07T14:00:16.120Z,43.68
2022-11-07T14:02:59.136Z,43.60
2022-11-07T14:05:36.020Z,43.55
2022-11-07T14:08:04.678Z,43.74
2022-11-07T14:10:48.475Z,43.69
2022-11-07T14:13:41.027Z,43.74
2022-11-07T14:16:19.284Z,43.73
2022-11-07T14:18:59.581Z,43.64
2022-11-07T14:21:32.068Z,43.62
2022-11-07T14:23:58.846Z,43.85
2022-11-07T14:26:30.795Z,43.58
2022-11-07T14:28:57.830Z,43.85
2022-11-07T14:31:33.725Z,43.64
2022-11-07T14:34:03.460Z,43.56
2022-11-07T14:36:30.444Z,43.62
2022-11-07T14:39:03.804Z,43.51
2022-11-07T14:41:30.748Z,43.61
2022-11-07T14:44:02.099Z,43.32
2022-11-07T14:46:28.708Z,43.54
2022-11-07T14:48:55.699Z,43.46
2022-11-07T14:51:27.356Z,43.22
2022-11-07T14:54:03.230Z,43.18
2022-11-07T14:56:34.353Z,43.04
2022-11-07T14:59:01.277Z,43.04
2022-11-07T15:01:31.669Z,42.90
2022-11-07T15:04:23.677Z,43.25
2022-11-07T15:06:50.707Z,42.92
2022-11-07T15:09:17.088Z,43.22
2022-11-07T15:11:56.340Z,42.92
2022-11-07T15:14:26.081Z,42.90
2022-11-07T15:16:54.069Z,42.90
2022-11-07T15:19:23.673Z,42.96
2022-11-07T15:22:05.306Z,43.08
2022-11-07T15:24:47.657Z,42.60
2022-11-07T15:27:13.974Z,43.13
2022-11-07T15:29:53.958Z,42.94
2022-11-07T15:32:25.045Z,42.95
2022-11-07T15:35:07.988Z,43.13
2022-11-07T15:37:38.423Z,42.99
2022-11-07T15:40:18.919Z,43.13
2022-11-07T15:42:45.703Z,43.07
2022-11-07T15:45:12.744Z,43.18
2022-11-07T15:47:39.614Z,43.21
2022-11-07T15:50:33.067Z,43.23
2022-11-07T15:52:59.599Z,43.42
2022-11-07T15:55:26.311Z,43.27
2022-11-07T15:57:54.422Z,43.22
2022-11-07T16:00:23.532Z,43.40
2022-11-07T16:02:50.230Z,43.33
2022-11-07T16:05:16.853Z,43.56
2022-11-07T16:07:44.914Z,43.50
2022-11-07T16:10:25.735Z,43.67
2022-11-07T16:12:53.801Z,43.60
2022-11-07T16:15:23.600Z,43.62
2022-11-07T16:17:49.980Z,43.77
2022-11-07T16:20:19.199Z,43.78
2022-11-07T16:22:46.574Z,43.69
2022-11-07T16:25:21.414Z,43.89
2022-11-07T16:27:54.804Z,43.78
2022-11-07T16:30:22.086Z,43.82
2022-11-07T16:32:48.724Z,43.88
2022-11-07T16:35:15.511Z,43.83
2022-11-07T16:37:41.891Z,43.82
2022-11-07T16:40:13.526Z,43.93
2022-11-07T16:42:39.909Z,44.01
2022-11-07T16:45:07.671Z,43.91
2022-11-07T16:47:39.571Z,44.33
2022-11-07T16:50:07.075Z,44.05
2022-11-07T16:52:33.616Z,43.97
2022-11-07T16:55:00.842Z,43.94
2022-11-07T16:57:27.278Z,44.02
2022-11-07T16:59:53.772Z,43.95
2022-11-07T17:02:23.393Z,44.20
2022-11-07T17:04:51.357Z,44.23
2022-11-07T17:07:20.108Z,44.09
2022-11-07T17:09:46.918Z,43.98
2022-11-07T17:12:15.535Z,44.23
2022-11-07T17:14:41.838Z,44.09
2022-11-07T17:17:08.507Z,43.99
2022-11-07T17:19:36.567Z,44.12
2022-11-07T17:22:03.184Z,43.94
2022-11-07T17:24:30.882Z,44.08
2022-11-07T17:26:58.908Z,44.02
2022-11-07T17:29:25.908Z,44.03
2022-11-07T17:31:53.553Z,44.05
2022-11-07T17:34:21.891Z,44.10
2022-11-07T17:36:51.650Z,44.14
2022-11-07T17:39:21.381Z,44.11
2022-11-07T17:41:49.916Z,44.13
2022-11-07T17:44:16.879Z,44.12
2022-11-07T17:46:46.255Z,44.04
2022-11-07T17:49:15.438Z,44.17
2022-11-07T17:51:42.348Z,44.12
2022-11-07T17:54:13.621Z,44.11
2022-11-07T17:56:41.284Z,44.18
2022-11-07T17:59:12.938Z,44.31
2022-11-07T18:01:40.685Z,44.14
2022-11-07T18:04:09.287Z,44.27
2022-11-07T18:06:40.995Z,44.30
2022-11-07T18:09:11.326Z,44.24
2022-11-07T18:11:37.646Z,44.23
2022-11-07T18:14:04.185Z,44.20
2022-11-07T18:16:33.190Z,44.39
2022-11-07T18:19:00.786Z,44.20
2022-11-07T18:21:27.526Z,44.29
2022-11-07T18:23:53.880Z,44.38
2022-11-07T18:26:31.085Z,44.73
2022-11-07T18:29:02.592Z,44.57
2022-11-07T18:31:29.219Z,44.40
2022-11-07T18:33:59.075Z,44.54
2022-11-07T18:36:26.122Z,44.52
2022-11-07T18:38:53.891Z,44.34
2022-11-07T18:41:22.189Z,44.48
2022-11-07T18:43:49.446Z,44.57
2022-11-07T18:46:19.160Z,44.50
2022-11-07T18:48:45.836Z,44.34
2022-11-07T18:51:17.132Z,44.42
2022-11-07T18:53:44.356Z,44.36
2022-11-07T18:56:12.818Z,44.40
2022-11-07T18:58:41.260Z,44.08
2022-11-07T19:01:18.987Z,44.35
2022-11-07T19:03:46.235Z,44.55
2022-11-07T19:06:18.871Z,44.41
2022-11-07T19:08:51.289Z,44.47
2022-11-07T19:11:28.733Z,44.38
2022-11-07T19:13:59.197Z,44.57
2022-11-07T19:16:27.315Z,44.38
2022-11-07T19:18:53.687Z,44.45
2022-11-07T19:21:21.230Z,44.46
2022-11-07T19:23:49.073Z,44.38
2022-11-07T19:26:16.307Z,44.37
2022-11-07T19:28:42.720Z,44.33
2022-11-07T19:31:12.585Z,44.34
2022-11-07T19:33:43.008Z,44.38
2022-11-07T19:36:17.543Z,44.17
2022-11-07T19:38:44.828Z,44.28
2022-11-07T19:41:12.824Z,44.37
2022-11-07T19:43:39.517Z,44.31
2022-11-07T19:46:11.484Z,44.40
2022-11-07T19:48:39.358Z,44.45
2022-11-07T19:51:07.377Z,44.41
2022-11-07T19:53:34.317Z,44.50
2022-11-07T19:56:09.652Z,44.58
2022-11-07T19:58:37.178Z,44.53
2022-11-07T20:01:10.513Z,44.79
2022-11-07T20:03:37.251Z,44.32
2022-11-07T20:06:03.755Z,44.63
2022-11-07T20:08:30.247Z,44.51
2022-11-07T20:10:56.731Z,44.60
2022-11-07T20:13:23.127Z,44.72
2022-11-07T20:15:49.690Z,44.59
2022-11-07T20:18:18.439Z,44.49
2022-11-07T20:20:44.830Z,44.57
2022-11-07T20:23:11.158Z,44.72
2022-11-07T20:25:41.118Z,44.72
2022-11-07T20:28:09.345Z,44.76
2022-11-07T20:30:35.873Z,44.70
2022-11-07T20:33:02.543Z,44.52
2022-11-07T20:35:29.068Z,44.45
2022-11-07T20:37:55.457Z,44.59
2022-11-07T20:40:26.511Z,44.50
2022-11-07T20:42:55.408Z,44.64
2022-11-07T20:45:21.747Z,44.78
2022-11-07T20:47:50.714Z,44.66
2022-11-07T20:50:17.447Z,44.75
2022-11-07T20:52:44.940Z,44.73
2022-11-07T20:55:11.650Z,44.83
2022-11-07T20:57:40.417Z,44.73
2022-11-07T21:00:08.147Z,44.72
2022-11-07T21:02:34.846Z,44.59
2022-11-07T21:05:18.080Z,44.38
2022-11-07T21:07:44.870Z,44.39
2022-11-07T21:10:11.446Z,44.39
2022-11-07T21:12:39.228Z,44.55
2022-11-07T21:15:07.011Z,44.67
2022-11-07T21:17:33.626Z,44.52
2022-11-07T21:20:01.487Z,44.52
2022-11-07T21:22:29.487Z,44.45
2022-11-07T21:24:56.830Z,44.53
2022-11-07T21:27:23.483Z,44.55
2022-11-07T21:29:49.861Z,44.61
2022-11-07T21:32:17.612Z,44.61
2022-11-07T21:34:46.567Z,44.68
2022-11-07T21:37:14.380Z,44.67
2022-11-07T21:39:40.691Z,44.55
2022-11-07T21:42:07.001Z,44.55
2022-11-07T21:44:34.661Z,44.51
2022-11-07T21:47:01.036Z,44.71
2022-11-07T21:49:27.904Z,44.57
2022-11-07T21:51:54.298Z,44.55
2022-11-07T21:54:20.653Z,44.48
2022-11-07T21:56:46.992Z,44.62
2022-11-07T21:59:13.291Z,44.76
2022-11-07T22:01:40.958Z,44.79
2022-11-07T22:04:12.257Z,44.91
2022-11-07T22:06:42.201Z,44.98
2022-11-07T22:09:10.262Z,44.96
2022-11-07T22:11:37.079Z,45.05
2022-11-07T22:14:03.802Z,45.02
2022-11-07T22:16:36.312Z,45.40
2022-11-07T22:19:11.164Z,45.65
2022-11-07T22:21:41.041Z,45.36
2022-11-07T22:24:08.144Z,45.44
2022-11-07T22:26:34.479Z,45.31
2022-11-07T22:29:02.282Z,45.31
2022-11-07T22:31:31.855Z,45.62
2022-11-07T22:34:00.628Z,45.63
2022-11-07T22:36:28.136Z,45.65
2022-11-07T22:38:57.239Z,45.91
2022-11-07T22:41:25.627Z,46.25
2022-11-07T22:43:52.266Z,45.90
2022-11-07T22:46:21.414Z,45.91
2022-11-07T22:48:49.075Z,46.40
2022-11-07T22:51:19.955Z,46.16
2022-11-07T22:53:46.592Z,46.07
2022-11-07T22:56:18.341Z,46.44
2022-11-07T22:58:45.883Z,46.41
2022-11-07T23:01:21.891Z,46.96
2022-11-07T23:03:48.973Z,46.28
2022-11-07T23:06:16.555Z,46.47
2022-11-07T23:08:43.448Z,46.79
2022-11-07T23:14:08.652Z,46.75
2022-11-07T23:16:38.362Z,46.95
2022-11-07T23:19:10.937Z,46.95
2022-11-07T23:21:37.447Z,46.88
2022-11-07T23:24:04.499Z,46.94
2022-11-07T23:26:34.956Z,46.69
2022-11-07T23:29:04.673Z,46.95
2022-11-07T23:31:35.629Z,46.75
2022-11-07T23:34:03.403Z,46.95
2022-11-07T23:36:29.759Z,47.04
2022-11-07T23:38:56.282Z,47.00
2022-11-07T23:41:22.962Z,47.26
2022-11-07T23:43:52.850Z,47.01
2022-11-07T23:46:38.063Z,47.09
2022-11-07T23:49:23.386Z,47.34
2022-11-07T23:51:51.173Z,47.13
2022-11-07T23:54:39.283Z,47.00
2022-11-07T23:57:06.360Z,47.29
2022-11-07T23:59:54.568Z,47.61
